Nearby METAR Reports

 

KHOT - Hot Springs, Arkansas, USA
Distance from station: W 8mi, 14km
Updated: 09/24/2022 5:53pm
Thunderstorm, Overcast
Thunderstorm, Overcast
 Wind from WNW
Wind: WNW 6 mph , 9 km/h
Temperature: 82°F , 28°C
Heat Index: 87°F , 31°C
Dew Point: 73°F , 23°C
Humidity: 74%
Barometer: 29.92 inHg , 1013.2 hPa
Summary: Thunderstorm
Clouds: Overcast
Visibility: 10 miles , 16 km
Cloud details: Mostly cloudy 8500 ft
Overcast 11000 ft
2022/09/24 22:53 KHOT 242253Z AUTO 30005KT 10SM TS BKN085 OVC110 28/23 A2992 RMK AO2 LTG DSNT W AND NW RAB00E27 TSB50 SLP125 P0005 T02780233
KMWT - Mount Ida, Arkansas, USA
Distance from station: W 36mi, 58km
Updated: 09/24/2022 5:53pm
Partly cloudy
Partly cloudy
 Wind from varies
Wind: varies 3 mph , 6 km/h
Temperature: 82°F , 28°C
Heat Index: 84°F , 29°C
Dew Point: 66°F , 19°C
Humidity: 58%
Barometer: 29.92 inHg , 1013.2 hPa
Clouds: Partly cloudy
Visibility: 10 miles , 16 km
Cloud details: Few Clouds 7000 ft
Partly cloudy 11000 ft
2022/09/24 22:53 KMWT 242253Z AUTO VRB03KT 10SM FEW070 SCT110 28/19 A2992 RMK AO2 SLP122 T02830189
 
KLIT - Little Rock, Arkansas, USA
Distance from station: ENE 45mi, 73km
Updated: 09/24/2022 5:53pm
Overcast
Overcast
 Wind from W
Wind: W 5 mph , 7 km/h
Temperature: 79°F , 26°C
Dew Point: 70°F , 21°C
Humidity: 74%
Barometer: 29.90 inHg , 1012.5 hPa
Clouds: Overcast
Visibility: 10 miles , 16 km
Cloud details: Partly cloudy 5000 ft
Mostly cloudy 10000 ft
Overcast 25000 ft
2022/09/24 22:53 KLIT 242253Z 26004KT 10SM SCT050CB BKN100 OVC250 26/21 A2990 RMK AO2 LTG DSNT ALQDS RAE03 SLP124 CB DSNT N MOV E OCNL LTGICCG P0000 T02610211
KLRF - Little Rock Afb, Arkansas, USA
Distance from station: NE 56mi, 89km
Updated: 09/24/2022 5:52pm
Light thunderstorm, Rain, Overcast
Light thunderstorm, Rain, Overcast
 Wind from NNW
Wind: NNW 21 mph , 33 km/h, Gust: 30 mph , 48 km/h
Temperature: 77°F , 25°C
Dew Point: 68°F , 20°C
Humidity: 74%
Barometer: 29.92 inHg , 1013.2 hPa
Summary: Light thunderstorm, Rain
Clouds: Overcast
Visibility: 4 miles , 6 km
Cloud details: Partly cloudy 8000 ft
Overcast 10000 ft
2022/09/24 22:52 KLRF 242252Z 33018G26KT 4SM -TSRA SCT080CB OVC100 25/20 A2992 RMK AO2A RAE2155DZB2155E00RAB00E39DZB39E40RAB40E41RAB52 SLP133 $